KMAN

Nampa Municipal Airport

Nampa, Idaho, USA
METAR KMAN 141335Z AUTO 00000KT 8SM CLR 15/08 A2997 RMK A01
Observed Flight Rules
Aug-14 @ 13:35 UTC (9 minutes ago) Visual Flight Rules
Visibility Clouds
8 miles
  • Clear skies
Temperatures Readings
Current 15°C / 59°F
Dewpoint 8°C / 46°F
Humidity 63%
Altimeter 29.97" Hg
Pressure 1015 hPa
Elevation 774
METAR KMAN 141335Z AUTO 00000KT 8SM CLR 15/08 A2997 RMK A01
Observed Flight Rules
Aug-14 @ 13:35 UTC
(9 minutes ago)
VFR
Clouds
  • Clear skies
Temperature Dewpoint
15°C / 59°F 8°C / 46°F
Humidity Altimeter Pressure
63% 29.97" Hg 1015 hPa